FCN587 KMLB-MNMG
Flight info
| Callsign | FCN587 |
|---|---|
| Flight time | N/A |
| Altitude | 38000 |
| Route | TIRCO Q87 PEAKY Y183 IKBIX DCT TAMDI DCT CISNE DCT RAKEL RAKEL1B |
| Aircraft | A321/M-SDE3FGHIRWY/LB1 |
Departure
| Time | 2026-04-30 22:17 |
|---|---|
| Airport | Melbourne Orlando International Airport (KMLB) |
Arrival
| Time | N/A |
|---|---|
| Airport | Augusto C. Sandino (Managua) International Airport (MNMG) |
| Time | Latitude | Longitude | Altitude | Speed | Heading |
|---|---|---|---|---|---|
| 2026-04-30 21:56 | 28.09911 | -80.63106 | 34 ft | 0 kts | 102° |
| 2026-04-30 22:09 | 28.09912 | -80.63109 | 34 ft | 1 kts | 101° |
| 2026-04-30 22:10 | 28.09914 | -80.63128 | 34 ft | 3 kts | 84° |
| 2026-04-30 22:10 | 28.09909 | -80.63148 | 31 ft | 3 kts | 50° |
| 2026-04-30 22:10 | 28.09895 | -80.63161 | 32 ft | 3 kts | 16° |
| 2026-04-30 22:10 | 28.09877 | -80.63166 | 30 ft | 3 kts | 17° |
| 2026-04-30 22:11 | 28.09863 | -80.63170 | 31 ft | 2 kts | 13° |
| 2026-04-30 22:13 | 28.09864 | -80.63170 | 31 ft | 0 kts | 13° |
| 2026-04-30 22:13 | 28.09901 | -80.63160 | 31 ft | 9 kts | 13° |
| 2026-04-30 22:13 | 28.09962 | -80.63146 | 33 ft | 8 kts | 11° |
| 2026-04-30 22:13 | 28.09998 | -80.63114 | 34 ft | 6 kts | 58° |
| 2026-04-30 22:14 | 28.10017 | -80.63084 | 35 ft | 4 kts | 45° |
| 2026-04-30 22:14 | 28.10037 | -80.63074 | 35 ft | 3 kts | 15° |
| 2026-04-30 22:14 | 28.10063 | -80.63067 | 35 ft | 8 kts | 13° |
| 2026-04-30 22:14 | 28.10128 | -80.63032 | 36 ft | 11 kts | 38° |
| 2026-04-30 22:15 | 28.10183 | -80.62986 | 36 ft | 9 kts | 27° |
| 2026-04-30 22:15 | 28.10233 | -80.62974 | 38 ft | 6 kts | 3° |
| 2026-04-30 22:15 | 28.10269 | -80.62984 | 39 ft | 7 kts | 325° |
| 2026-04-30 22:15 | 28.10278 | -80.63040 | 39 ft | 7 kts | 267° |
| 2026-04-30 22:16 | 28.10277 | -80.63049 | 39 ft | 0 kts | 267° |
| 2026-04-30 22:16 | 28.10274 | -80.63114 | 39 ft | 34 kts | 267° |
| 2026-04-30 22:17 | 28.10144 | -80.65925 | 266 ft | 170 kts | 268° |
| 2026-04-30 22:17 | 28.10088 | -80.67255 | 886 ft | 166 kts | 271° |
| 2026-04-30 22:17 | 28.09701 | -80.69775 | 1968 ft | 177 kts | 233° |
| 2026-04-30 22:18 | 28.08586 | -80.70528 | 2145 ft | 204 kts | 195° |
| 2026-04-30 22:18 | 28.05476 | -80.71106 | 2451 ft | 252 kts | 192° |
| 2026-04-30 22:19 | 28.01898 | -80.71781 | 3950 ft | 265 kts | 192° |
| 2026-04-30 22:19 | 28.00070 | -80.72133 | 4805 ft | 268 kts | 192° |
| 2026-04-30 22:19 | 27.96375 | -80.72852 | 6479 ft | 275 kts | 193° |
| 2026-04-30 22:20 | 27.94471 | -80.73225 | 7239 ft | 280 kts | 193° |
| 2026-04-30 22:20 | 27.90563 | -80.73998 | 8762 ft | 290 kts | 194° |
| 2026-04-30 22:20 | 27.88563 | -80.74393 | 9512 ft | 294 kts | 194° |
| 2026-04-30 22:21 | 27.86528 | -80.74794 | 10184 ft | 301 kts | 195° |
| 2026-04-30 22:21 | 27.84390 | -80.75218 | 10418 ft | 323 kts | 194° |
| 2026-04-30 22:21 | 27.82105 | -80.75672 | 10681 ft | 342 kts | 194° |
| 2026-04-30 22:21 | 27.79733 | -80.76136 | 11264 ft | 349 kts | 194° |
| 2026-04-30 22:22 | 27.77330 | -80.76600 | 11971 ft | 352 kts | 194° |
| 2026-04-30 22:22 | 27.74898 | -80.77067 | 12672 ft | 356 kts | 194° |
| 2026-04-30 22:22 | 27.72449 | -80.77541 | 13372 ft | 359 kts | 194° |
| 2026-04-30 22:22 | 27.70005 | -80.78017 | 14021 ft | 363 kts | 194° |
| 2026-04-30 22:23 | 27.67508 | -80.78506 | 14629 ft | 367 kts | 194° |
| 2026-04-30 22:23 | 27.64979 | -80.79003 | 15229 ft | 371 kts | 194° |
| 2026-04-30 22:23 | 27.62415 | -80.79504 | 15832 ft | 375 kts | 194° |
| 2026-04-30 22:23 | 27.59828 | -80.80009 | 16405 ft | 380 kts | 195° |
| 2026-04-30 22:24 | 27.57212 | -80.80520 | 17010 ft | 384 kts | 195° |
| 2026-04-30 22:24 | 27.54571 | -80.81036 | 17584 ft | 388 kts | 195° |
| 2026-04-30 22:24 | 27.51899 | -80.81561 | 18153 ft | 392 kts | 195° |
| 2026-04-30 22:24 | 27.49200 | -80.82090 | 18638 ft | 395 kts | 195° |
| 2026-04-30 22:25 | 27.46481 | -80.82623 | 19114 ft | 399 kts | 195° |
| 2026-04-30 22:25 | 27.43738 | -80.83156 | 19597 ft | 401 kts | 195° |
| 2026-04-30 22:25 | 27.40971 | -80.83691 | 20055 ft | 404 kts | 195° |
| 2026-04-30 22:25 | 27.38191 | -80.84231 | 20515 ft | 407 kts | 195° |
| 2026-04-30 22:26 | 27.32615 | -80.85308 | 21400 ft | 412 kts | 194° |
| 2026-04-30 22:26 | 27.29757 | -80.85800 | 21835 ft | 416 kts | 192° |
| 2026-04-30 22:26 | 27.26864 | -80.86174 | 22266 ft | 420 kts | 190° |
| 2026-04-30 22:27 | 27.23944 | -80.86474 | 22688 ft | 423 kts | 189° |
| 2026-04-30 22:27 | 27.21000 | -80.86742 | 23090 ft | 426 kts | 189° |
| 2026-04-30 22:27 | 27.15051 | -80.87301 | 23788 ft | 432 kts | 189° |
| 2026-04-30 22:28 | 27.09042 | -80.87943 | 24459 ft | 435 kts | 189° |
| 2026-04-30 22:28 | 27.06018 | -80.88279 | 24823 ft | 437 kts | 189° |
| 2026-04-30 22:29 | 26.96897 | -80.89295 | 25931 ft | 442 kts | 189° |
| 2026-04-30 22:29 | 26.93829 | -80.89631 | 26307 ft | 443 kts | 189° |
| 2026-04-30 22:30 | 26.81487 | -80.90973 | 27696 ft | 451 kts | 189° |
| 2026-04-30 22:31 | 26.72069 | -80.92001 | 28771 ft | 456 kts | 189° |
| 2026-04-30 22:32 | 26.62551 | -80.93034 | 29776 ft | 460 kts | 189° |
| 2026-04-30 22:32 | 26.56148 | -80.93727 | 30322 ft | 464 kts | 189° |
| 2026-04-30 22:33 | 26.46444 | -80.94786 | 31124 ft | 470 kts | 189° |
| 2026-04-30 22:33 | 26.39989 | -80.95479 | 31890 ft | 469 kts | 189° |
| 2026-04-30 22:34 | 26.30268 | -80.96533 | 33028 ft | 468 kts | 189° |
| 2026-04-30 22:35 | 26.23798 | -80.97240 | 33754 ft | 467 kts | 189° |
| 2026-04-30 22:36 | 26.10846 | -80.98640 | 34962 ft | 468 kts | 189° |
| 2026-04-30 22:36 | 26.07646 | -80.98987 | 35250 ft | 469 kts | 189° |
| 2026-04-30 22:37 | 25.97893 | -81.00034 | 36071 ft | 470 kts | 189° |
| 2026-04-30 22:37 | 25.94635 | -81.00386 | 36327 ft | 471 kts | 189° |
| 2026-04-30 22:37 | 25.88106 | -81.01089 | 36833 ft | 472 kts | 189° |
| 2026-04-30 22:38 | 25.81565 | -81.01789 | 37309 ft | 473 kts | 189° |
| 2026-04-30 22:38 | 25.75007 | -81.02497 | 37759 ft | 474 kts | 189° |
| 2026-04-30 22:39 | 25.71723 | -81.02851 | 37923 ft | 475 kts | 189° |
| 2026-04-30 22:40 | 25.52020 | -81.04956 | 37950 ft | 475 kts | 188° |
| 2026-04-30 22:41 | 25.35555 | -81.06721 | 37954 ft | 476 kts | 188° |
| 2026-04-30 22:43 | 25.15816 | -81.08818 | 37971 ft | 476 kts | 188° |
| 2026-04-30 22:44 | 25.02613 | -81.10218 | 37964 ft | 477 kts | 188° |
| 2026-04-30 22:45 | 24.82838 | -81.12319 | 37968 ft | 477 kts | 188° |
| 2026-04-30 22:47 | 24.63014 | -81.14406 | 37935 ft | 480 kts | 188° |
| 2026-04-30 22:48 | 24.49740 | -81.16075 | 37951 ft | 480 kts | 191° |
| 2026-04-30 22:49 | 24.29859 | -81.19063 | 37962 ft | 481 kts | 190° |
| 2026-04-30 22:51 | 24.09980 | -81.21898 | 37965 ft | 481 kts | 190° |
| 2026-04-30 22:52 | 24.00100 | -81.23691 | 37954 ft | 477 kts | 201° |
| 2026-04-30 22:53 | 23.88342 | -81.29923 | 37952 ft | 471 kts | 212° |
| 2026-04-30 22:53 | 23.79593 | -81.34842 | 37939 ft | 472 kts | 211° |
| 2026-04-30 22:55 | 23.64979 | -81.43055 | 37943 ft | 473 kts | 211° |
| 2026-04-30 22:56 | 23.53246 | -81.49628 | 37954 ft | 474 kts | 211° |
| 2026-04-30 22:57 | 23.38572 | -81.57836 | 37944 ft | 477 kts | 211° |
| 2026-04-30 22:58 | 23.26749 | -81.64434 | 37956 ft | 478 kts | 211° |
| 2026-04-30 22:59 | 23.08998 | -81.74315 | 37961 ft | 480 kts | 211° |